sensor_id;sensor_type;location;lat;lon;timestamp;temperature;humidity
3678;DHT22;1855;50.934;6.958;2023-04-03T00:01:37;4.80;92.10
3678;DHT22;1855;50.934;6.958;2023-04-03T00:04:04;4.70;92.20
3678;DHT22;1855;50.934;6.958;2023-04-03T00:06:32;4.70;92.70
3678;DHT22;1855;50.934;6.958;2023-04-03T00:09:00;4.60;93.00
3678;DHT22;1855;50.934;6.958;2023-04-03T00:11:27;4.60;93.10
3678;DHT22;1855;50.934;6.958;2023-04-03T00:13:53;4.50;93.20
3678;DHT22;1855;50.934;6.958;2023-04-03T00:16:20;4.50;93.90
3678;DHT22;1855;50.934;6.958;2023-04-03T00:18:47;4.40;93.70
3678;DHT22;1855;50.934;6.958;2023-04-03T00:21:14;4.40;94.20
3678;DHT22;1855;50.934;6.958;2023-04-03T00:23:41;4.40;94.20
3678;DHT22;1855;50.934;6.958;2023-04-03T00:26:09;4.40;94.40
3678;DHT22;1855;50.934;6.958;2023-04-03T00:28:36;4.40;94.60
3678;DHT22;1855;50.934;6.958;2023-04-03T00:31:02;4.40;94.90
3678;DHT22;1855;50.934;6.958;2023-04-03T00:33:29;4.40;95.10
3678;DHT22;1855;50.934;6.958;2023-04-03T00:35:56;4.40;95.10
3678;DHT22;1855;50.934;6.958;2023-04-03T00:38:23;4.40;95.00
3678;DHT22;1855;50.934;6.958;2023-04-03T00:40:50;4.40;95.00
3678;DHT22;1855;50.934;6.958;2023-04-03T00:43:20;4.30;95.30
3678;DHT22;1855;50.934;6.958;2023-04-03T00:45:48;4.30;95.10
3678;DHT22;1855;50.934;6.958;2023-04-03T00:48:18;4.20;95.10
3678;DHT22;1855;50.934;6.958;2023-04-03T00:50:46;4.20;95.10
3678;DHT22;1855;50.934;6.958;2023-04-03T00:53:17;4.00;94.50
3678;DHT22;1855;50.934;6.958;2023-04-03T00:55:46;4.00;94.70
3678;DHT22;1855;50.934;6.958;2023-04-03T00:58:14;3.90;95.30
3678;DHT22;1855;50.934;6.958;2023-04-03T01:00:48;3.90;94.80
3678;DHT22;1855;50.934;6.958;2023-04-03T01:03:21;3.80;94.90
3678;DHT22;1855;50.934;6.958;2023-04-03T01:05:48;3.80;94.70
3678;DHT22;1855;50.934;6.958;2023-04-03T01:08:15;3.80;94.40
3678;DHT22;1855;50.934;6.958;2023-04-03T01:10:42;3.70;93.70
3678;DHT22;1855;50.934;6.958;2023-04-03T01:13:22;3.70;93.00
3678;DHT22;1855;50.934;6.958;2023-04-03T01:15:50;3.70;92.80
3678;DHT22;1855;50.934;6.958;2023-04-03T01:18:17;3.70;92.50
3678;DHT22;1855;50.934;6.958;2023-04-03T01:24:07;3.70;92.40
3678;DHT22;1855;50.934;6.958;2023-04-03T01:26:36;3.70;91.80
3678;DHT22;1855;50.934;6.958;2023-04-03T01:29:03;3.60;91.60
3678;DHT22;1855;50.934;6.958;2023-04-03T01:31:42;3.60;91.60
3678;DHT22;1855;50.934;6.958;2023-04-03T01:34:09;3.60;92.60
3678;DHT22;1855;50.934;6.958;2023-04-03T01:36:36;3.50;92.20
3678;DHT22;1855;50.934;6.958;2023-04-03T01:39:03;3.50;92.10
3678;DHT22;1855;50.934;6.958;2023-04-03T01:41:30;3.50;92.30
3678;DHT22;1855;50.934;6.958;2023-04-03T01:43:57;3.40;92.50
3678;DHT22;1855;50.934;6.958;2023-04-03T01:46:24;3.40;92.20
3678;DHT22;1855;50.934;6.958;2023-04-03T01:48:52;3.40;92.40
3678;DHT22;1855;50.934;6.958;2023-04-03T01:51:19;3.40;93.30
3678;DHT22;1855;50.934;6.958;2023-04-03T01:53:45;3.40;93.70
3678;DHT22;1855;50.934;6.958;2023-04-03T01:56:12;3.30;93.50
3678;DHT22;1855;50.934;6.958;2023-04-03T01:58:39;3.30;93.70
3678;DHT22;1855;50.934;6.958;2023-04-03T02:01:06;3.30;94.20
3678;DHT22;1855;50.934;6.958;2023-04-03T02:03:33;3.30;94.40
3678;DHT22;1855;50.934;6.958;2023-04-03T02:06:01;3.30;95.00
3678;DHT22;1855;50.934;6.958;2023-04-03T02:08:28;3.20;95.30
3678;DHT22;1855;50.934;6.958;2023-04-03T02:10:54;3.20;95.80
3678;DHT22;1855;50.934;6.958;2023-04-03T02:13:21;3.20;96.00
3678;DHT22;1855;50.934;6.958;2023-04-03T02:15:48;3.10;96.30
3678;DHT22;1855;50.934;6.958;2023-04-03T02:18:15;3.10;96.30
3678;DHT22;1855;50.934;6.958;2023-04-03T02:20:42;3.10;96.30
3678;DHT22;1855;50.934;6.958;2023-04-03T02:23:10;3.00;96.40
3678;DHT22;1855;50.934;6.958;2023-04-03T02:25:37;2.90;96.40
3678;DHT22;1855;50.934;6.958;2023-04-03T02:28:04;2.90;96.80
3678;DHT22;1855;50.934;6.958;2023-04-03T02:30:30;2.90;97.10
3678;DHT22;1855;50.934;6.958;2023-04-03T02:32:57;2.80;97.20
3678;DHT22;1855;50.934;6.958;2023-04-03T02:35:24;2.80;97.50
3678;DHT22;1855;50.934;6.958;2023-04-03T02:37:50;2.80;97.50
3678;DHT22;1855;50.934;6.958;2023-04-03T02:40:19;2.80;97.60
3678;DHT22;1855;50.934;6.958;2023-04-03T02:42:45;2.80;97.40
3678;DHT22;1855;50.934;6.958;2023-04-03T02:45:12;2.70;97.40
3678;DHT22;1855;50.934;6.958;2023-04-03T02:47:39;2.70;97.40
3678;DHT22;1855;50.934;6.958;2023-04-03T02:50:06;2.70;97.30
3678;DHT22;1855;50.934;6.958;2023-04-03T02:52:32;2.60;97.20
3678;DHT22;1855;50.934;6.958;2023-04-03T02:54:59;2.60;97.80
3678;DHT22;1855;50.934;6.958;2023-04-03T02:57:27;2.60;97.90
3678;DHT22;1855;50.934;6.958;2023-04-03T02:59:54;2.60;98.20
3678;DHT22;1855;50.934;6.958;2023-04-03T03:02:21;2.60;98.00
3678;DHT22;1855;50.934;6.958;2023-04-03T03:04:47;2.50;97.90
3678;DHT22;1855;50.934;6.958;2023-04-03T03:07:14;2.50;97.90
3678;DHT22;1855;50.934;6.958;2023-04-03T03:09:41;2.50;98.10
3678;DHT22;1855;50.934;6.958;2023-04-03T03:12:08;2.50;98.20
3678;DHT22;1855;50.934;6.958;2023-04-03T03:14:36;2.50;98.10
3678;DHT22;1855;50.934;6.958;2023-04-03T03:17:03;2.50;98.20
3678;DHT22;1855;50.934;6.958;2023-04-03T03:19:29;2.40;98.10
3678;DHT22;1855;50.934;6.958;2023-04-03T03:21:56;2.40;98.50
3678;DHT22;1855;50.934;6.958;2023-04-03T03:24:23;2.40;98.40
3678;DHT22;1855;50.934;6.958;2023-04-03T03:26:50;2.40;98.20
3678;DHT22;1855;50.934;6.958;2023-04-03T03:29:16;2.40;98.00
3678;DHT22;1855;50.934;6.958;2023-04-03T03:31:44;2.30;97.90
3678;DHT22;1855;50.934;6.958;2023-04-03T03:34:11;2.30;97.80
3678;DHT22;1855;50.934;6.958;2023-04-03T03:36:38;2.30;97.70
3678;DHT22;1855;50.934;6.958;2023-04-03T03:39:06;2.30;97.80
3678;DHT22;1855;50.934;6.958;2023-04-03T03:41:33;2.30;97.80
3678;DHT22;1855;50.934;6.958;2023-04-03T03:43:59;2.20;97.60
3678;DHT22;1855;50.934;6.958;2023-04-03T03:46:26;2.20;97.70
3678;DHT22;1855;50.934;6.958;2023-04-03T03:48:54;2.20;97.70
3678;DHT22;1855;50.934;6.958;2023-04-03T03:51:21;2.30;97.80
3678;DHT22;1855;50.934;6.958;2023-04-03T03:53:48;2.20;97.70
3678;DHT22;1855;50.934;6.958;2023-04-03T03:56:14;2.20;97.80
3678;DHT22;1855;50.934;6.958;2023-04-03T03:58:41;2.30;97.60
3678;DHT22;1855;50.934;6.958;2023-04-03T04:01:08;2.30;97.40
3678;DHT22;1855;50.934;6.958;2023-04-03T04:03:35;2.30;97.10
3678;DHT22;1855;50.934;6.958;2023-04-03T04:06:03;2.30;97.30
3678;DHT22;1855;50.934;6.958;2023-04-03T04:08:30;2.30;96.80
3678;DHT22;1855;50.934;6.958;2023-04-03T04:10:57;2.30;96.90
3678;DHT22;1855;50.934;6.958;2023-04-03T04:13:24;2.20;96.90
3678;DHT22;1855;50.934;6.958;2023-04-03T04:15:50;2.20;96.60
3678;DHT22;1855;50.934;6.958;2023-04-03T04:18:17;2.20;96.80
3678;DHT22;1855;50.934;6.958;2023-04-03T04:20:45;2.10;97.10
3678;DHT22;1855;50.934;6.958;2023-04-03T04:23:13;2.10;96.90
3678;DHT22;1855;50.934;6.958;2023-04-03T04:25:40;2.10;97.30
3678;DHT22;1855;50.934;6.958;2023-04-03T04:28:07;2.10;97.30
3678;DHT22;1855;50.934;6.958;2023-04-03T04:30:33;2.00;97.40
3678;DHT22;1855;50.934;6.958;2023-04-03T04:33:00;2.00;97.70
3678;DHT22;1855;50.934;6.958;2023-04-03T04:35:27;2.00;97.80
3678;DHT22;1855;50.934;6.958;2023-04-03T04:37:54;2.00;97.80
3678;DHT22;1855;50.934;6.958;2023-04-03T04:40:22;1.90;97.80
3678;DHT22;1855;50.934;6.958;2023-04-03T04:42:49;1.90;97.70
3678;DHT22;1855;50.934;6.958;2023-04-03T04:45:15;1.90;97.60
3678;DHT22;1855;50.934;6.958;2023-04-03T04:47:42;1.90;97.30
3678;DHT22;1855;50.934;6.958;2023-04-03T04:50:10;2.00;97.40
3678;DHT22;1855;50.934;6.958;2023-04-03T04:52:38;2.00;97.70
3678;DHT22;1855;50.934;6.958;2023-04-03T04:55:05;2.00;97.80
3678;DHT22;1855;50.934;6.958;2023-04-03T04:57:33;2.00;97.80
3678;DHT22;1855;50.934;6.958;2023-04-03T05:00:00;2.00;97.80
3678;DHT22;1855;50.934;6.958;2023-04-03T05:02:28;2.00;97.70
3678;DHT22;1855;50.934;6.958;2023-04-03T05:04:54;1.90;97.60
3678;DHT22;1855;50.934;6.958;2023-04-03T05:07:21;1.90;97.70
3678;DHT22;1855;50.934;6.958;2023-04-03T05:09:48;1.90;97.90
3678;DHT22;1855;50.934;6.958;2023-04-03T05:12:15;1.90;97.60
3678;DHT22;1855;50.934;6.958;2023-04-03T05:14:43;1.90;97.20
3678;DHT22;1855;50.934;6.958;2023-04-03T05:17:10;2.00;97.00
3678;DHT22;1855;50.934;6.958;2023-04-03T05:19:37;2.00;97.20
3678;DHT22;1855;50.934;6.958;2023-04-03T05:22:03;2.00;97.10
3678;DHT22;1855;50.934;6.958;2023-04-03T05:24:30;2.00;97.10
3678;DHT22;1855;50.934;6.958;2023-04-03T05:26:57;2.00;97.30
3678;DHT22;1855;50.934;6.958;2023-04-03T05:29:24;2.00;96.90
3678;DHT22;1855;50.934;6.958;2023-04-03T05:31:52;2.00;97.10
3678;DHT22;1855;50.934;6.958;2023-04-03T05:34:18;2.00;97.00
3678;DHT22;1855;50.934;6.958;2023-04-03T05:36:45;2.00;96.90
3678;DHT22;1855;50.934;6.958;2023-04-03T05:39:12;2.10;96.90
3678;DHT22;1855;50.934;6.958;2023-04-03T05:41:39;2.10;96.70
3678;DHT22;1855;50.934;6.958;2023-04-03T05:44:05;2.10;96.60
3678;DHT22;1855;50.934;6.958;2023-04-03T05:46:32;2.10;96.80
3678;DHT22;1855;50.934;6.958;2023-04-03T05:49:00;2.20;96.90
3678;DHT22;1855;50.934;6.958;2023-04-03T05:51:30;2.20;97.00
3678;DHT22;1855;50.934;6.958;2023-04-03T05:54:03;2.30;96.80
3678;DHT22;1855;50.934;6.958;2023-04-03T05:56:31;2.30;96.90
3678;DHT22;1855;50.934;6.958;2023-04-03T05:58:58;2.30;96.60
3678;DHT22;1855;50.934;6.958;2023-04-03T06:01:24;2.30;96.10
3678;DHT22;1855;50.934;6.958;2023-04-03T06:03:52;2.30;96.30
3678;DHT22;1855;50.934;6.958;2023-04-03T06:06:20;2.30;96.20
3678;DHT22;1855;50.934;6.958;2023-04-03T06:08:47;2.40;96.20
3678;DHT22;1855;50.934;6.958;2023-04-03T06:11:14;2.40;95.80
3678;DHT22;1855;50.934;6.958;2023-04-03T06:13:41;2.50;95.40
3678;DHT22;1855;50.934;6.958;2023-04-03T06:16:09;2.60;95.20
3678;DHT22;1855;50.934;6.958;2023-04-03T06:18:36;2.60;94.80
3678;DHT22;1855;50.934;6.958;2023-04-03T06:21:03;2.70;94.90
3678;DHT22;1855;50.934;6.958;2023-04-03T06:23:31;2.80;94.90
3678;DHT22;1855;50.934;6.958;2023-04-03T06:25:58;2.80;94.90
3678;DHT22;1855;50.934;6.958;2023-04-03T06:28:25;2.90;94.90
3678;DHT22;1855;50.934;6.958;2023-04-03T06:30:51;3.00;94.50
3678;DHT22;1855;50.934;6.958;2023-04-03T06:33:18;3.00;94.10
3678;DHT22;1855;50.934;6.958;2023-04-03T06:35:45;3.10;94.00
3678;DHT22;1855;50.934;6.958;2023-04-03T06:38:12;3.20;93.70
3678;DHT22;1855;50.934;6.958;2023-04-03T06:40:40;3.20;93.40
3678;DHT22;1855;50.934;6.958;2023-04-03T06:43:07;3.30;93.00
3678;DHT22;1855;50.934;6.958;2023-04-03T06:45:33;3.40;92.90
3678;DHT22;1855;50.934;6.958;2023-04-03T06:48:01;3.50;93.00
3678;DHT22;1855;50.934;6.958;2023-04-03T06:50:28;3.60;92.50
3678;DHT22;1855;50.934;6.958;2023-04-03T06:52:55;3.60;92.10
3678;DHT22;1855;50.934;6.958;2023-04-03T06:55:22;3.70;91.80
3678;DHT22;1855;50.934;6.958;2023-04-03T06:57:50;3.80;91.10
3678;DHT22;1855;50.934;6.958;2023-04-03T07:00:18;3.90;90.40
3678;DHT22;1855;50.934;6.958;2023-04-03T07:02:44;4.00;90.30
3678;DHT22;1855;50.934;6.958;2023-04-03T07:05:12;4.10;89.80
3678;DHT22;1855;50.934;6.958;2023-04-03T07:07:39;4.20;89.50
3678;DHT22;1855;50.934;6.958;2023-04-03T07:10:07;4.30;88.70
3678;DHT22;1855;50.934;6.958;2023-04-03T07:12:35;4.30;88.10
3678;DHT22;1855;50.934;6.958;2023-04-03T07:15:03;4.40;86.90
3678;DHT22;1855;50.934;6.958;2023-04-03T07:17:30;4.50;86.80
3678;DHT22;1855;50.934;6.958;2023-04-03T07:19:57;4.70;86.50
3678;DHT22;1855;50.934;6.958;2023-04-03T07:22:24;4.80;84.60
3678;DHT22;1855;50.934;6.958;2023-04-03T07:24:51;4.90;83.20
3678;DHT22;1855;50.934;6.958;2023-04-03T07:27:17;5.00;83.10
3678;DHT22;1855;50.934;6.958;2023-04-03T07:29:45;5.20;82.80
3678;DHT22;1855;50.934;6.958;2023-04-03T07:32:15;5.30;80.90
3678;DHT22;1855;50.934;6.958;2023-04-03T07:34:42;5.40;79.80
3678;DHT22;1855;50.934;6.958;2023-04-03T07:37:09;5.60;78.40
3678;DHT22;1855;50.934;6.958;2023-04-03T07:39:36;5.70;77.10
3678;DHT22;1855;50.934;6.958;2023-04-03T07:42:03;5.90;76.60
3678;DHT22;1855;50.934;6.958;2023-04-03T07:44:30;6.00;75.70
3678;DHT22;1855;50.934;6.958;2023-04-03T07:46:57;6.10;75.30
3678;DHT22;1855;50.934;6.958;2023-04-03T07:49:26;6.20;74.60
3678;DHT22;1855;50.934;6.958;2023-04-03T07:51:54;6.40;73.00
3678;DHT22;1855;50.934;6.958;2023-04-03T07:54:20;6.50;71.00
3678;DHT22;1855;50.934;6.958;2023-04-03T07:56:48;6.70;71.30
3678;DHT22;1855;50.934;6.958;2023-04-03T07:59:14;6.90;70.70
3678;DHT22;1855;50.934;6.958;2023-04-03T08:01:41;7.00;68.90
3678;DHT22;1855;50.934;6.958;2023-04-03T08:04:08;7.10;69.60
3678;DHT22;1855;50.934;6.958;2023-04-03T08:06:36;7.20;67.80
3678;DHT22;1855;50.934;6.958;2023-04-03T08:09:03;7.40;67.70
3678;DHT22;1855;50.934;6.958;2023-04-03T08:11:30;7.50;66.40
3678;DHT22;1855;50.934;6.958;2023-04-03T08:13:57;7.60;64.90
3678;DHT22;1855;50.934;6.958;2023-04-03T08:16:24;7.70;64.30
3678;DHT22;1855;50.934;6.958;2023-04-03T08:18:52;7.80;64.00
3678;DHT22;1855;50.934;6.958;2023-04-03T08:21:19;8.00;63.10
3678;DHT22;1855;50.934;6.958;2023-04-03T08:23:48;8.10;61.90
3678;DHT22;1855;50.934;6.958;2023-04-03T08:26:17;8.20;58.30
3678;DHT22;1855;50.934;6.958;2023-04-03T08:28:44;8.30;57.90
3678;DHT22;1855;50.934;6.958;2023-04-03T08:31:13;8.40;56.60
3678;DHT22;1855;50.934;6.958;2023-04-03T08:33:40;8.50;54.40
3678;DHT22;1855;50.934;6.958;2023-04-03T08:36:14;8.60;53.60
3678;DHT22;1855;50.934;6.958;2023-04-03T08:38:42;8.70;53.10
3678;DHT22;1855;50.934;6.958;2023-04-03T08:41:15;8.80;52.40
3678;DHT22;1855;50.934;6.958;2023-04-03T08:43:56;8.80;50.90
3678;DHT22;1855;50.934;6.958;2023-04-03T08:46:27;8.80;50.90
3678;DHT22;1855;50.934;6.958;2023-04-03T08:49:00;9.00;51.10
3678;DHT22;1855;50.934;6.958;2023-04-03T08:51:27;9.00;50.70
3678;DHT22;1855;50.934;6.958;2023-04-03T08:53:59;9.10;50.60
3678;DHT22;1855;50.934;6.958;2023-04-03T08:56:30;9.20;51.20
3678;DHT22;1855;50.934;6.958;2023-04-03T08:58:59;9.30;50.40
3678;DHT22;1855;50.934;6.958;2023-04-03T09:01:33;9.50;49.50
3678;DHT22;1855;50.934;6.958;2023-04-03T09:04:01;9.50;48.70
3678;DHT22;1855;50.934;6.958;2023-04-03T09:06:31;9.60;47.60
3678;DHT22;1855;50.934;6.958;2023-04-03T09:09:10;9.70;47.90
3678;DHT22;1855;50.934;6.958;2023-04-03T09:11:46;9.80;47.10
3678;DHT22;1855;50.934;6.958;2023-04-03T09:14:17;10.00;46.70
3678;DHT22;1855;50.934;6.958;2023-04-03T09:16:51;10.00;45.90
3678;DHT22;1855;50.934;6.958;2023-04-03T09:19:23;10.10;46.40
3678;DHT22;1855;50.934;6.958;2023-04-03T09:21:56;10.20;45.60
3678;DHT22;1855;50.934;6.958;2023-04-03T09:24:24;10.20;45.20
3678;DHT22;1855;50.934;6.958;2023-04-03T09:26:56;10.30;45.20
3678;DHT22;1855;50.934;6.958;2023-04-03T09:29:25;10.20;46.10
3678;DHT22;1855;50.934;6.958;2023-04-03T09:31:56;10.40;46.50
3678;DHT22;1855;50.934;6.958;2023-04-03T09:34:27;10.50;45.00
3678;DHT22;1855;50.934;6.958;2023-04-03T09:36:55;10.70;43.50
3678;DHT22;1855;50.934;6.958;2023-04-03T09:39:24;10.80;42.30
3678;DHT22;1855;50.934;6.958;2023-04-03T09:41:59;10.80;43.40
3678;DHT22;1855;50.934;6.958;2023-04-03T09:44:29;10.90;42.90
3678;DHT22;1855;50.934;6.958;2023-04-03T09:46:56;11.10;43.70
3678;DHT22;1855;50.934;6.958;2023-04-03T09:49:22;11.20;42.00
3678;DHT22;1855;50.934;6.958;2023-04-03T09:51:49;11.40;40.40
3678;DHT22;1855;50.934;6.958;2023-04-03T09:54:35;11.40;38.70
3678;DHT22;1855;50.934;6.958;2023-04-03T09:57:10;11.60;37.50
3678;DHT22;1855;50.934;6.958;2023-04-03T09:59:45;11.70;36.10
3678;DHT22;1855;50.934;6.958;2023-04-03T10:02:24;11.60;36.90
3678;DHT22;1855;50.934;6.958;2023-04-03T10:04:54;11.60;37.90
3678;DHT22;1855;50.934;6.958;2023-04-03T10:07:27;11.80;36.90
3678;DHT22;1855;50.934;6.958;2023-04-03T10:09:56;12.00;37.20
3678;DHT22;1855;50.934;6.958;2023-04-03T10:12:24;12.10;37.20
3678;DHT22;1855;50.934;6.958;2023-04-03T10:14:56;12.20;36.00
3678;DHT22;1855;50.934;6.958;2023-04-03T10:17:31;12.30;35.80
3678;DHT22;1855;50.934;6.958;2023-04-03T10:20:02;12.50;36.60
3678;DHT22;1855;50.934;6.958;2023-04-03T10:22:39;12.50;36.80
3678;DHT22;1855;50.934;6.958;2023-04-03T10:25:15;12.50;36.70
3678;DHT22;1855;50.934;6.958;2023-04-03T10:27:52;12.70;34.30
3678;DHT22;1855;50.934;6.958;2023-04-03T10:30:33;12.80;33.80
3678;DHT22;1855;50.934;6.958;2023-04-03T10:33:12;12.80;32.70
3678;DHT22;1855;50.934;6.958;2023-04-03T10:35:51;12.90;32.80
3678;DHT22;1855;50.934;6.958;2023-04-03T10:38:30;13.00;33.30
3678;DHT22;1855;50.934;6.958;2023-04-03T10:41:03;13.10;33.10
3678;DHT22;1855;50.934;6.958;2023-04-03T10:43:40;13.30;31.50
3678;DHT22;1855;50.934;6.958;2023-04-03T10:46:13;13.40;32.50
3678;DHT22;1855;50.934;6.958;2023-04-03T10:48:53;13.50;30.80
3678;DHT22;1855;50.934;6.958;2023-04-03T10:51:27;13.70;31.50
3678;DHT22;1855;50.934;6.958;2023-04-03T10:53:59;13.90;30.80
3678;DHT22;1855;50.934;6.958;2023-04-03T10:56:31;13.90;30.00
3678;DHT22;1855;50.934;6.958;2023-04-03T10:59:06;13.80;29.60
3678;DHT22;1855;50.934;6.958;2023-04-03T11:01:37;13.80;29.50
3678;DHT22;1855;50.934;6.958;2023-04-03T11:04:06;13.80;28.80
3678;DHT22;1855;50.934;6.958;2023-04-03T11:06:37;13.70;28.90
3678;DHT22;1855;50.934;6.958;2023-04-03T11:09:15;13.60;28.50
3678;DHT22;1855;50.934;6.958;2023-04-03T11:11:45;13.30;29.60
3678;DHT22;1855;50.934;6.958;2023-04-03T11:14:17;13.20;30.00
3678;DHT22;1855;50.934;6.958;2023-04-03T11:16:57;13.10;29.60
3678;DHT22;1855;50.934;6.958;2023-04-03T11:19:32;13.10;30.00
3678;DHT22;1855;50.934;6.958;2023-04-03T11:22:04;13.10;31.10
3678;DHT22;1855;50.934;6.958;2023-04-03T11:24:36;13.30;31.30
3678;DHT22;1855;50.934;6.958;2023-04-03T11:27:05;13.60;30.80
3678;DHT22;1855;50.934;6.958;2023-04-03T11:29:36;13.70;30.40
3678;DHT22;1855;50.934;6.958;2023-04-03T11:32:11;13.90;31.10
3678;DHT22;1855;50.934;6.958;2023-04-03T11:34:45;14.10;31.90
3678;DHT22;1855;50.934;6.958;2023-04-03T11:37:17;14.30;35.20
3678;DHT22;1855;50.934;6.958;2023-04-03T11:39:52;14.50;33.30
3678;DHT22;1855;50.934;6.958;2023-04-03T11:42:28;14.80;31.40
3678;DHT22;1855;50.934;6.958;2023-04-03T11:48:01;15.20;31.10
3678;DHT22;1855;50.934;6.958;2023-04-03T11:50:39;15.30;30.20
3678;DHT22;1855;50.934;6.958;2023-04-03T11:53:31;15.40;30.20
3678;DHT22;1855;50.934;6.958;2023-04-03T11:56:03;15.40;28.90
3678;DHT22;1855;50.934;6.958;2023-04-03T11:58:31;15.40;29.00
3678;DHT22;1855;50.934;6.958;2023-04-03T12:01:12;15.40;30.30
3678;DHT22;1855;50.934;6.958;2023-04-03T12:04:09;15.60;30.80
3678;DHT22;1855;50.934;6.958;2023-04-03T12:10:18;15.30;28.90
3678;DHT22;1855;50.934;6.958;2023-04-03T12:12:58;15.00;29.20
3678;DHT22;1855;50.934;6.958;2023-04-03T12:15:49;14.90;29.10
3678;DHT22;1855;50.934;6.958;2023-04-03T12:18:43;14.60;27.70
3678;DHT22;1855;50.934;6.958;2023-04-03T12:21:12;14.60;29.10
3678;DHT22;1855;50.934;6.958;2023-04-03T12:23:59;14.80;27.50
3678;DHT22;1855;50.934;6.958;2023-04-03T12:26:30;14.90;29.00
3678;DHT22;1855;50.934;6.958;2023-04-03T12:28:57;15.20;29.10
3678;DHT22;1855;50.934;6.958;2023-04-03T12:31:35;15.30;27.40
3678;DHT22;1855;50.934;6.958;2023-04-03T12:34:18;15.50;28.00
3678;DHT22;1855;50.934;6.958;2023-04-03T12:36:58;15.80;28.50
3678;DHT22;1855;50.934;6.958;2023-04-03T12:39:45;16.40;29.20
3678;DHT22;1855;50.934;6.958;2023-04-03T12:42:31;17.00;28.20
3678;DHT22;1855;50.934;6.958;2023-04-03T12:45:03;17.30;27.70
3678;DHT22;1855;50.934;6.958;2023-04-03T12:47:36;17.20;26.60
3678;DHT22;1855;50.934;6.958;2023-04-03T12:50:04;17.00;26.70
3678;DHT22;1855;50.934;6.958;2023-04-03T12:52:37;16.70;27.60
3678;DHT22;1855;50.934;6.958;2023-04-03T12:55:15;16.80;27.90
3678;DHT22;1855;50.934;6.958;2023-04-03T12:57:43;16.70;27.20
3678;DHT22;1855;50.934;6.958;2023-04-03T13:00:28;16.80;27.20
3678;DHT22;1855;50.934;6.958;2023-04-03T13:02:55;16.90;27.40
3678;DHT22;1855;50.934;6.958;2023-04-03T13:05:23;17.10;27.00
3678;DHT22;1855;50.934;6.958;2023-04-03T13:07:56;17.20;27.50
3678;DHT22;1855;50.934;6.958;2023-04-03T13:10:24;17.40;27.40
3678;DHT22;1855;50.934;6.958;2023-04-03T13:12:53;17.50;26.90
3678;DHT22;1855;50.934;6.958;2023-04-03T13:15:23;17.60;27.60
3678;DHT22;1855;50.934;6.958;2023-04-03T13:17:51;17.70;26.40
3678;DHT22;1855;50.934;6.958;2023-04-03T13:20:22;17.80;26.60
3678;DHT22;1855;50.934;6.958;2023-04-03T13:22:55;17.90;25.60
3678;DHT22;1855;50.934;6.958;2023-04-03T13:25:24;17.90;25.40
3678;DHT22;1855;50.934;6.958;2023-04-03T13:27:52;18.00;26.60
3678;DHT22;1855;50.934;6.958;2023-04-03T13:30:27;18.00;27.30
3678;DHT22;1855;50.934;6.958;2023-04-03T13:32:56;18.00;26.20
3678;DHT22;1855;50.934;6.958;2023-04-03T13:35:30;18.10;26.40
3678;DHT22;1855;50.934;6.958;2023-04-03T13:38:04;18.40;26.50
3678;DHT22;1855;50.934;6.958;2023-04-03T13:40:31;18.60;26.90
3678;DHT22;1855;50.934;6.958;2023-04-03T13:43:04;18.80;25.50
3678;DHT22;1855;50.934;6.958;2023-04-03T13:45:31;18.90;25.70
3678;DHT22;1855;50.934;6.958;2023-04-03T13:48:16;19.00;25.20
3678;DHT22;1855;50.934;6.958;2023-04-03T13:50:58;19.30;25.40
3678;DHT22;1855;50.934;6.958;2023-04-03T13:53:28;19.90;24.70
3678;DHT22;1855;50.934;6.958;2023-04-03T13:56:06;20.20;24.00
3678;DHT22;1855;50.934;6.958;2023-04-03T13:58:34;20.30;25.00
3678;DHT22;1855;50.934;6.958;2023-04-03T14:01:08;20.40;24.00
3678;DHT22;1855;50.934;6.958;2023-04-03T14:03:41;20.40;23.60
3678;DHT22;1855;50.934;6.958;2023-04-03T14:06:10;20.40;22.80
3678;DHT22;1855;50.934;6.958;2023-04-03T14:08:39;20.30;23.50
3678;DHT22;1855;50.934;6.958;2023-04-03T14:11:10;20.60;23.90
3678;DHT22;1855;50.934;6.958;2023-04-03T14:13:38;21.00;23.00
3678;DHT22;1855;50.934;6.958;2023-04-03T14:16:05;21.10;22.80
3678;DHT22;1855;50.934;6.958;2023-04-03T14:18:32;21.40;23.60
3678;DHT22;1855;50.934;6.958;2023-04-03T14:20:58;21.60;22.50
3678;DHT22;1855;50.934;6.958;2023-04-03T14:23:25;21.90;23.00
3678;DHT22;1855;50.934;6.958;2023-04-03T14:25:53;22.10;22.90
3678;DHT22;1855;50.934;6.958;2023-04-03T14:28:22;22.30;22.30
3678;DHT22;1855;50.934;6.958;2023-04-03T14:30:50;22.60;22.00
3678;DHT22;1855;50.934;6.958;2023-04-03T14:33:19;22.90;22.00
3678;DHT22;1855;50.934;6.958;2023-04-03T14:35:47;23.10;22.50
3678;DHT22;1855;50.934;6.958;2023-04-03T14:38:22;23.30;22.00
3678;DHT22;1855;50.934;6.958;2023-04-03T14:40:49;23.30;21.00
3678;DHT22;1855;50.934;6.958;2023-04-03T14:43:18;23.20;21.70
3678;DHT22;1855;50.934;6.958;2023-04-03T14:45:45;23.40;21.40
3678;DHT22;1855;50.934;6.958;2023-04-03T14:48:17;23.70;21.50
3678;DHT22;1855;50.934;6.958;2023-04-03T14:50:44;24.10;20.60
3678;DHT22;1855;50.934;6.958;2023-04-03T14:53:12;23.90;20.80
3678;DHT22;1855;50.934;6.958;2023-04-03T14:55:40;23.90;19.80
3678;DHT22;1855;50.934;6.958;2023-04-03T14:58:11;24.40;20.50
3678;DHT22;1855;50.934;6.958;2023-04-03T15:00:39;25.30;19.80
3678;DHT22;1855;50.934;6.958;2023-04-03T15:03:08;25.70;19.80
3678;DHT22;1855;50.934;6.958;2023-04-03T15:05:36;25.90;19.80
3678;DHT22;1855;50.934;6.958;2023-04-03T15:08:03;26.00;19.80
3678;DHT22;1855;50.934;6.958;2023-04-03T15:10:30;26.50;18.90
3678;DHT22;1855;50.934;6.958;2023-04-03T15:12:58;26.60;18.50
3678;DHT22;1855;50.934;6.958;2023-04-03T15:15:28;26.40;19.00
3678;DHT22;1855;50.934;6.958;2023-04-03T15:17:57;26.70;18.50
3678;DHT22;1855;50.934;6.958;2023-04-03T15:20:25;26.90;18.70
3678;DHT22;1855;50.934;6.958;2023-04-03T15:22:53;26.90;17.90
3678;DHT22;1855;50.934;6.958;2023-04-03T15:25:21;26.60;18.50
3678;DHT22;1855;50.934;6.958;2023-04-03T15:27:48;26.20;18.50
3678;DHT22;1855;50.934;6.958;2023-04-03T15:30:17;26.40;18.80
3678;DHT22;1855;50.934;6.958;2023-04-03T15:32:44;26.50;18.50
3678;DHT22;1855;50.934;6.958;2023-04-03T15:35:12;26.20;18.50
3678;DHT22;1855;50.934;6.958;2023-04-03T15:37:39;25.50;18.30
3678;DHT22;1855;50.934;6.958;2023-04-03T15:40:07;25.50;18.90
3678;DHT22;1855;50.934;6.958;2023-04-03T15:42:33;26.10;19.00
3678;DHT22;1855;50.934;6.958;2023-04-03T15:45:00;26.00;18.20
3678;DHT22;1855;50.934;6.958;2023-04-03T15:47:28;26.20;18.30
3678;DHT22;1855;50.934;6.958;2023-04-03T15:49:55;25.80;18.10
3678;DHT22;1855;50.934;6.958;2023-04-03T15:52:23;25.90;18.40
3678;DHT22;1855;50.934;6.958;2023-04-03T15:54:50;26.40;18.50
3678;DHT22;1855;50.934;6.958;2023-04-03T15:57:17;26.40;17.90
3678;DHT22;1855;50.934;6.958;2023-04-03T15:59:43;26.00;17.90
3678;DHT22;1855;50.934;6.958;2023-04-03T16:02:11;26.10;18.40
3678;DHT22;1855;50.934;6.958;2023-04-03T16:04:39;26.30;17.60
3678;DHT22;1855;50.934;6.958;2023-04-03T16:07:06;26.00;18.10
3678;DHT22;1855;50.934;6.958;2023-04-03T16:09:34;25.70;18.40
3678;DHT22;1855;50.934;6.958;2023-04-03T16:12:02;25.90;18.40
3678;DHT22;1855;50.934;6.958;2023-04-03T16:14:28;25.60;18.70
3678;DHT22;1855;50.934;6.958;2023-04-03T16:16:56;25.70;18.80
3678;DHT22;1855;50.934;6.958;2023-04-03T16:19:23;25.50;18.40
3678;DHT22;1855;50.934;6.958;2023-04-03T16:21:50;25.40;18.40
3678;DHT22;1855;50.934;6.958;2023-04-03T16:24:16;25.00;18.60
3678;DHT22;1855;50.934;6.958;2023-04-03T16:26:44;24.60;19.00
3678;DHT22;1855;50.934;6.958;2023-04-03T16:29:11;24.10;19.50
3678;DHT22;1855;50.934;6.958;2023-04-03T16:31:38;23.60;19.20
3678;DHT22;1855;50.934;6.958;2023-04-03T16:34:05;22.50;20.00